Time;durP1;ratioP1;P1;durP2;ratioP2;P2;SDS_P1;SDS_P2;PMS_P1;PMS_P2;Temp;Humidity;BMP_temperature;BMP_pressure;BME280_temperature;BME280_humidity;BME280_pressure;Samples;Min_cycle;Max_cycle;Signal;HPM_P1;HPM_P2
2023/08/14 00:01:14;;;;;;;5.45;2.92;;;13.80;99.90;;;;;;4972533;28;20073;-74
2023/08/14 00:03:40;;;;;;;7.97;3.53;;;13.80;99.90;;;;;;4999612;28;20128;-75
2023/08/14 00:06:05;;;;;;;6.68;3.92;;;13.80;99.90;;;;;;5001976;28;20027;-75
2023/08/14 00:08:31;;;;;;;7.63;3.83;;;13.80;99.90;;;;;;5002922;28;20631;-74
2023/08/14 00:10:56;;;;;;;6.07;4.00;;;13.80;99.90;;;;;;4992214;28;20042;-74
2023/08/14 00:13:22;;;;;;;5.07;3.55;;;13.70;99.90;;;;;;4990446;28;20061;-74
2023/08/14 00:15:48;;;;;;;7.18;3.75;;;13.70;99.90;;;;;;5002091;28;20133;-74
2023/08/14 00:18:14;;;;;;;2.92;2.30;;;13.70;99.90;;;;;;4972289;28;20515;-75
2023/08/14 00:20:40;;;;;;;2.63;2.33;;;13.70;99.90;;;;;;4988618;28;20038;-75
2023/08/14 00:23:05;;;;;;;3.42;1.90;;;13.70;99.90;;;;;;4985176;28;20042;-75
2023/08/14 00:25:31;;;;;;;2.08;1.73;;;13.70;99.90;;;;;;4996132;28;20049;-75
2023/08/14 00:27:57;;;;;;;3.25;2.25;;;13.60;99.90;;;;;;4971407;28;20128;-75
2023/08/14 00:30:22;;;;;;;3.13;1.50;;;13.60;99.90;;;;;;4987209;28;20063;-74
2023/08/14 00:32:48;;;;;;;1.98;1.35;;;13.60;99.90;;;;;;4998052;28;20050;-74
2023/08/14 00:35:14;;;;;;;5.32;3.17;;;13.50;99.90;;;;;;4985640;28;20412;-75
2023/08/14 00:37:47;;;;;;;6.13;3.45;;;13.50;99.90;;;;;;4984403;28;20109;-74
2023/08/14 00:40:14;;;;;;;7.25;3.78;;;13.40;99.90;;;;;;4988587;28;20053;-75
2023/08/14 00:42:45;;;;;;;8.23;4.20;;;13.50;99.90;;;;;;4986185;28;20042;-75
2023/08/14 00:45:11;;;;;;;8.80;4.05;;;13.50;99.90;;;;;;5001085;28;20591;-75
2023/08/14 00:47:37;;;;;;;7.03;4.60;;;13.50;99.90;;;;;;4990207;28;20121;-75
2023/08/14 00:50:05;;;;;;;7.07;4.10;;;13.40;99.90;;;;;;4986768;28;20532;-74
2023/08/14 00:52:32;;;;;;;7.07;4.50;;;13.50;99.90;;;;;;4987133;28;20046;-75
2023/08/14 00:55:03;;;;;;;8.93;4.57;;;13.50;99.90;;;;;;4987807;28;20045;-75
2023/08/14 00:57:31;;;;;;;9.00;5.40;;;13.50;99.90;;;;;;5004003;28;20125;-75
2023/08/14 00:59:59;;;;;;;10.00;4.72;;;13.50;99.90;;;;;;4986605;28;20034;-75
2023/08/14 01:02:25;;;;;;;7.55;4.78;;;13.40;99.90;;;;;;4971628;28;20038;-73
2023/08/14 01:04:51;;;;;;;9.95;5.28;;;13.50;99.90;;;;;;4969272;28;20046;-75
2023/08/14 01:07:16;;;;;;;7.88;5.07;;;13.50;99.90;;;;;;4987696;28;20053;-75
2023/08/14 01:09:42;;;;;;;8.82;4.65;;;13.50;99.90;;;;;;4998180;28;20076;-75
2023/08/14 01:12:25;;;;;;;8.75;5.00;;;13.50;99.90;;;;;;4997493;28;20053;-75
2023/08/14 01:14:59;;;;;;;7.75;4.75;;;13.50;99.90;;;;;;4986144;28;20157;-75
2023/08/14 01:17:29;;;;;;;6.45;4.72;;;13.40;99.90;;;;;;4994044;28;20533;-75
2023/08/14 01:19:57;;;;;;;10.00;5.32;;;13.40;99.90;;;;;;4991778;28;20034;-75
2023/08/14 01:22:22;;;;;;;8.13;4.40;;;13.50;99.90;;;;;;4970514;28;20051;-77
2023/08/14 01:25:00;;;;;;;8.10;5.00;;;13.40;99.90;;;;;;4982479;28;20054;-76
2023/08/14 01:27:27;;;;;;;6.57;4.60;;;13.40;99.90;;;;;;4988555;28;20069;-75
2023/08/14 01:29:59;;;;;;;6.70;3.97;;;13.40;99.90;;;;;;4975719;28;20100;-75
2023/08/14 01:32:25;;;;;;;4.72;3.00;;;13.40;99.90;;;;;;4994371;28;20100;-75
2023/08/14 01:34:51;;;;;;;2.97;2.28;;;13.40;99.90;;;;;;4988969;28;20038;-74
2023/08/14 01:37:43;;;;;;;2.58;2.15;;;13.40;99.90;;;;;;4986140;28;20127;-75
2023/08/14 01:40:21;;;;;;;2.97;2.67;;;13.30;99.90;;;;;;4989532;28;20485;-75
2023/08/14 01:42:49;;;;;;;7.63;3.20;;;13.30;99.90;;;;;;4985156;28;20175;-75
2023/08/14 01:45:19;;;;;;;7.07;3.97;;;13.20;99.90;;;;;;4985976;28;20054;-76
2023/08/14 01:47:46;;;;;;;10.55;4.05;;;13.20;99.90;;;;;;4983787;28;20916;-75
2023/08/14 01:50:14;;;;;;;8.18;4.45;;;13.10;99.90;;;;;;4983593;28;20049;-75
2023/08/14 01:52:40;;;;;;;7.35;4.60;;;13.10;99.90;;;;;;4990485;28;20050;-75
2023/08/14 01:55:06;;;;;;;6.53;4.60;;;13.10;99.90;;;;;;4995571;28;20433;-76
2023/08/14 01:57:32;;;;;;;9.18;5.25;;;13.10;99.90;;;;;;4986668;28;20417;-75
2023/08/14 01:59:59;;;;;;;9.98;5.18;;;13.10;99.90;;;;;;4971612;28;20497;-75
2023/08/14 02:02:24;;;;;;;9.82;5.47;;;13.10;99.90;;;;;;4985392;28;20114;-75
2023/08/14 02:04:50;;;;;;;10.68;6.32;;;13.10;99.90;;;;;;4994546;28;20046;-75
2023/08/14 02:07:17;;;;;;;10.30;6.30;;;13.10;99.90;;;;;;4990377;28;20409;-75
2023/08/14 02:09:42;;;;;;;7.25;5.28;;;13.10;99.90;;;;;;4985507;28;20754;-75
2023/08/14 02:12:08;;;;;;;8.60;5.38;;;13.20;99.90;;;;;;5002271;28;20053;-76
2023/08/14 02:14:34;;;;;;;10.38;4.95;;;13.10;99.90;;;;;;4990442;28;20049;-75
2023/08/14 02:17:00;;;;;;;9.60;5.45;;;13.10;99.90;;;;;;4983252;28;20062;-76
2023/08/14 02:19:25;;;;;;;10.00;4.95;;;13.10;99.90;;;;;;4985094;28;20077;-75
2023/08/14 02:21:51;;;;;;;8.88;4.90;;;13.10;99.90;;;;;;5002868;28;20066;-76
2023/08/14 02:24:16;;;;;;;7.45;4.43;;;13.00;99.90;;;;;;4986672;28;20042;-76
2023/08/14 02:26:42;;;;;;;7.35;4.50;;;13.00;99.90;;;;;;5003182;28;20053;-76
2023/08/14 02:29:09;;;;;;;7.28;4.18;;;12.90;99.90;;;;;;5000858;28;20129;-76
2023/08/14 02:31:34;;;;;;;6.40;3.53;;;12.90;99.90;;;;;;4986510;28;20057;-76
2023/08/14 02:34:01;;;;;;;6.22;3.55;;;12.90;99.90;;;;;;4987268;28;20038;-75
2023/08/14 02:36:27;;;;;;;2.42;2.10;;;12.90;99.90;;;;;;5003060;28;20042;-75
2023/08/14 02:38:54;;;;;;;2.45;1.77;;;12.90;99.90;;;;;;4986195;28;20073;-76
2023/08/14 02:41:20;;;;;;;4.18;2.33;;;12.90;99.90;;;;;;4986629;28;20042;-76
2023/08/14 02:43:45;;;;;;;2.30;1.80;;;12.80;99.90;;;;;;4970788;28;20097;-76
2023/08/14 02:46:11;;;;;;;2.80;1.92;;;12.80;99.90;;;;;;4979590;28;20452;-76
2023/08/14 02:48:37;;;;;;;4.88;3.60;;;12.80;99.90;;;;;;4988255;28;20034;-76
2023/08/14 02:51:03;;;;;;;6.60;4.22;;;12.70;99.90;;;;;;4984329;28;20042;-76
2023/08/14 02:53:29;;;;;;;7.50;3.88;;;12.70;99.90;;;;;;4982146;28;20535;-76
2023/08/14 02:55:54;;;;;;;5.82;4.22;;;12.70;99.90;;;;;;5001665;28;20035;-76
2023/08/14 02:58:20;;;;;;;7.70;3.70;;;12.70;99.90;;;;;;4986581;28;20042;-75
2023/08/14 03:00:46;;;;;;;6.07;4.60;;;12.60;99.90;;;;;;5000764;28;20037;-75
2023/08/14 03:03:12;;;;;;;8.13;4.55;;;12.60;99.90;;;;;;4985523;28;20117;-75
2023/08/14 03:05:38;;;;;;;7.50;4.68;;;12.50;99.90;;;;;;5000198;28;20146;-75
2023/08/14 03:08:04;;;;;;;9.35;5.00;;;12.50;99.90;;;;;;4985606;28;20049;-75
2023/08/14 03:10:30;;;;;;;7.85;5.53;;;12.50;99.90;;;;;;4980100;28;20126;-75
2023/08/14 03:12:57;;;;;;;6.60;4.85;;;12.50;99.90;;;;;;4984475;28;20117;-75
2023/08/14 03:15:22;;;;;;;6.57;4.85;;;12.50;99.90;;;;;;4976812;28;20038;-75
2023/08/14 03:17:48;;;;;;;9.85;5.22;;;12.50;99.90;;;;;;4977241;28;20098;-75
2023/08/14 03:20:14;;;;;;;9.88;4.88;;;12.50;99.90;;;;;;4982881;28;20042;-75
2023/08/14 03:22:40;;;;;;;7.40;5.03;;;12.50;99.90;;;;;;4998051;28;20042;-75
2023/08/14 03:25:06;;;;;;;7.60;4.60;;;12.50;99.90;;;;;;4987166;28;20493;-76
2023/08/14 03:27:31;;;;;;;6.82;4.93;;;12.50;99.90;;;;;;5000157;28;20436;-75
2023/08/14 03:29:57;;;;;;;8.80;5.75;;;12.50;99.90;;;;;;5005032;28;20069;-75
2023/08/14 03:32:23;;;;;;;9.18;5.65;;;12.50;99.90;;;;;;5003656;28;20060;-73
2023/08/14 03:34:49;;;;;;;11.55;5.53;;;12.50;99.90;;;;;;5003766;28;20042;-75
2023/08/14 03:37:14;;;;;;;9.40;4.80;;;12.40;99.90;;;;;;4989932;28;20077;-76
2023/08/14 03:39:40;;;;;;;10.13;5.90;;;12.40;99.90;;;;;;4988325;28;20627;-75
2023/08/14 03:42:06;;;;;;;11.90;5.95;;;12.40;99.90;;;;;;4998098;28;20038;-75
2023/08/14 03:44:31;;;;;;;11.80;6.15;;;12.40;99.90;;;;;;4980395;28;20042;-75
2023/08/14 03:46:57;;;;;;;11.48;5.93;;;12.40;99.90;;;;;;4984846;28;20793;-75
2023/08/14 03:49:22;;;;;;;12.93;7.30;;;12.40;99.90;;;;;;5003841;28;20046;-75
2023/08/14 03:51:48;;;;;;;12.13;6.97;;;12.40;99.90;;;;;;4971932;28;20049;-75
2023/08/14 03:54:14;;;;;;;12.30;6.70;;;12.40;99.90;;;;;;4987728;28;20129;-75
2023/08/14 03:56:40;;;;;;;12.00;6.93;;;12.50;99.90;;;;;;5004380;28;20053;-76
2023/08/14 03:59:05;;;;;;;11.50;6.65;;;12.40;99.90;;;;;;4988583;28;20046;-75
2023/08/14 04:01:31;;;;;;;10.57;6.93;;;12.40;99.90;;;;;;4983794;28;20070;-75
2023/08/14 04:03:57;;;;;;;12.15;7.43;;;12.40;99.90;;;;;;4967760;28;20039;-75
2023/08/14 04:06:23;;;;;;;11.70;7.82;;;12.50;99.90;;;;;;5002011;28;20070;-75
2023/08/14 04:08:48;;;;;;;12.38;7.68;;;12.50;99.90;;;;;;5005146;28;20046;-75
2023/08/14 04:11:14;;;;;;;15.35;8.93;;;12.50;99.90;;;;;;5004545;28;20505;-75
2023/08/14 04:13:40;;;;;;;13.45;8.05;;;12.50;99.90;;;;;;5001621;28;20069;-75
2023/08/14 04:16:05;;;;;;;14.05;7.85;;;12.50;99.90;;;;;;5001607;28;20124;-75
2023/08/14 04:18:32;;;;;;;14.68;8.90;;;12.60;99.90;;;;;;4984434;28;20604;-75
2023/08/14 04:20:58;;;;;;;13.95;8.70;;;12.60;99.90;;;;;;4970079;28;20039;-75
2023/08/14 04:23:25;;;;;;;11.10;7.78;;;12.50;99.90;;;;;;4987584;28;20050;-75
2023/08/14 04:25:53;;;;;;;13.27;8.38;;;12.60;99.90;;;;;;5006034;28;20524;-76
2023/08/14 04:28:19;;;;;;;12.73;7.85;;;12.60;99.90;;;;;;4989741;28;20073;-75
2023/08/14 04:30:45;;;;;;;13.82;8.85;;;12.60;99.90;;;;;;5006135;28;20842;-75
2023/08/14 04:33:10;;;;;;;15.90;7.90;;;12.60;99.90;;;;;;4997148;28;20516;-75
2023/08/14 04:35:37;;;;;;;14.68;7.68;;;12.60;99.90;;;;;;4982738;28;20416;-75
2023/08/14 04:38:04;;;;;;;14.93;7.55;;;12.60;99.90;;;;;;4973891;28;20133;-76
2023/08/14 04:40:29;;;;;;;10.88;7.28;;;12.60;99.90;;;;;;4983370;28;20042;-76
2023/08/14 04:42:55;;;;;;;16.85;8.63;;;12.60;99.90;;;;;;4970883;28;20038;-75
2023/08/14 04:45:21;;;;;;;13.13;8.00;;;12.60;99.90;;;;;;4989925;28;20034;-75
2023/08/14 04:47:47;;;;;;;13.35;7.60;;;12.60;99.90;;;;;;4966892;28;20053;-76
2023/08/14 04:50:12;;;;;;;13.60;7.53;;;12.70;99.90;;;;;;4987113;28;20130;-76
2023/08/14 04:52:38;;;;;;;16.45;8.82;;;12.70;99.90;;;;;;4999775;28;20104;-75
2023/08/14 04:55:05;;;;;;;16.90;9.27;;;12.70;99.90;;;;;;4985347;28;20069;-75
2023/08/14 04:57:31;;;;;;;16.77;8.32;;;12.90;99.90;;;;;;4993969;28;20664;-75
2023/08/14 04:59:56;;;;;;;15.75;9.38;;;12.90;99.90;;;;;;4993985;28;20129;-75
2023/08/14 05:02:22;;;;;;;16.55;9.20;;;13.00;99.90;;;;;;5013325;28;20045;-75
2023/08/14 05:04:48;;;;;;;15.27;8.93;;;13.20;99.90;;;;;;4998030;28;20054;-76
2023/08/14 05:07:13;;;;;;;13.20;8.35;;;13.20;99.90;;;;;;4981059;28;20134;-75
2023/08/14 05:09:39;;;;;;;14.77;8.80;;;13.40;99.90;;;;;;4982484;28;21100;-75
2023/08/14 05:12:05;;;;;;;16.95;9.27;;;13.50;99.90;;;;;;5004170;28;20050;-75
2023/08/14 05:14:31;;;;;;;16.73;9.10;;;13.60;99.90;;;;;;5003005;28;20049;-75
2023/08/14 05:16:56;;;;;;;17.02;9.55;;;13.70;99.90;;;;;;4988419;28;20488;-75
2023/08/14 05:19:22;;;;;;;13.38;8.43;;;13.70;99.90;;;;;;5004035;28;20038;-75
2023/08/14 05:21:47;;;;;;;17.98;9.63;;;13.80;99.90;;;;;;4986091;28;20046;-75
2023/08/14 05:24:16;;;;;;;14.82;9.48;;;13.80;99.90;;;;;;4986274;28;20125;-75
2023/08/14 05:26:42;;;;;;;17.67;8.77;;;13.90;99.90;;;;;;4987899;28;20382;-75
2023/08/14 05:29:07;;;;;;;17.83;9.95;;;14.10;99.90;;;;;;4987569;28;20120;-75
2023/08/14 05:31:33;;;;;;;18.30;10.18;;;14.20;99.90;;;;;;5002055;28;20391;-76
2023/08/14 05:33:59;;;;;;;15.57;9.00;;;14.10;99.90;;;;;;4964681;28;20160;-75
2023/08/14 05:36:24;;;;;;;15.63;9.13;;;14.30;99.90;;;;;;4978097;28;20548;-75
2023/08/14 05:38:50;;;;;;;17.80;9.35;;;14.50;99.90;;;;;;4991246;28;20038;-75
2023/08/14 05:41:16;;;;;;;16.15;9.52;;;14.60;99.90;;;;;;4965333;28;20092;-75
2023/08/14 05:43:42;;;;;;;16.83;9.70;;;14.60;99.90;;;;;;4979989;28;20042;-76
2023/08/14 05:46:08;;;;;;;16.77;9.25;;;14.90;99.90;;;;;;4985866;28;20046;-75
2023/08/14 05:48:33;;;;;;;17.95;8.95;;;15.00;99.90;;;;;;4979897;28;20034;-74
2023/08/14 05:50:59;;;;;;;14.73;9.32;;;15.10;99.90;;;;;;4983756;28;20046;-75
2023/08/14 05:53:24;;;;;;;15.07;8.68;;;15.20;99.90;;;;;;4983264;28;20133;-75
2023/08/14 05:55:50;;;;;;;13.68;8.93;;;15.20;99.90;;;;;;4983929;28;20046;-74
2023/08/14 05:58:16;;;;;;;13.60;8.60;;;15.30;99.90;;;;;;5000342;28;20042;-74
2023/08/14 06:00:41;;;;;;;35.75;19.33;;;15.40;99.90;;;;;;4971513;28;20045;-74
2023/08/14 06:03:08;;;;;;;20.13;9.25;;;15.40;99.90;;;;;;4989535;28;20062;-75
2023/08/14 06:05:35;;;;;;;12.10;8.38;;;15.50;99.90;;;;;;4979465;28;20046;-75
2023/08/14 06:08:00;;;;;;;15.02;8.20;;;15.60;99.90;;;;;;4992345;28;20531;-75
2023/08/14 06:10:26;;;;;;;16.80;8.00;;;15.60;99.90;;;;;;4971955;28;20053;-75
2023/08/14 06:12:52;;;;;;;11.98;7.78;;;15.70;99.90;;;;;;4985834;28;20050;-76
2023/08/14 06:15:19;;;;;;;12.52;8.10;;;15.80;99.90;;;;;;4968803;28;20176;-75
2023/08/14 06:17:45;;;;;;;12.90;7.47;;;15.90;99.90;;;;;;4990405;28;20042;-75
2023/08/14 06:20:11;;;;;;;12.75;7.85;;;16.00;99.90;;;;;;4982011;28;20038;-75
2023/08/14 06:22:43;;;;;;;11.75;7.70;;;16.10;99.90;;;;;;4998002;28;20397;-75
2023/08/14 06:25:09;;;;;;;11.02;7.30;;;16.30;99.90;;;;;;4985546;28;20060;-75
2023/08/14 06:27:35;;;;;;;12.02;7.53;;;16.40;99.90;;;;;;4986273;28;20862;-75
2023/08/14 06:30:01;;;;;;;13.23;7.60;;;16.60;99.90;;;;;;4986747;28;20059;-75
2023/08/14 06:32:26;;;;;;;10.55;7.13;;;16.70;99.90;;;;;;4970550;28;20516;-75
2023/08/14 06:34:52;;;;;;;11.63;6.70;;;16.70;99.90;;;;;;4969647;28;20594;-75
2023/08/14 06:37:17;;;;;;;12.35;7.13;;;16.80;99.90;;;;;;4974276;28;20053;-75
2023/08/14 06:39:43;;;;;;;9.63;6.72;;;16.90;99.90;;;;;;4999674;28;20074;-75
2023/08/14 06:42:09;;;;;;;10.38;5.95;;;16.90;99.90;;;;;;4983311;28;20042;-74
2023/08/14 06:44:34;;;;;;;10.80;6.80;;;16.90;99.90;;;;;;4979833;28;20074;-75
2023/08/14 06:47:01;;;;;;;10.52;5.82;;;17.00;99.90;;;;;;4996048;28;20072;-75
2023/08/14 06:49:27;;;;;;;11.85;7.95;;;17.00;99.90;;;;;;4985562;28;20065;-75
2023/08/14 06:51:53;;;;;;;11.63;6.32;;;17.00;99.90;;;;;;4963122;28;20106;-75
2023/08/14 06:54:19;;;;;;;12.00;6.25;;;17.10;99.90;;;;;;4985223;28;20064;-75
2023/08/14 06:56:44;;;;;;;13.15;6.50;;;17.20;99.90;;;;;;4979781;28;20068;-75
2023/08/14 06:59:10;;;;;;;9.93;6.13;;;17.10;99.90;;;;;;4970236;28;20030;-76
2023/08/14 07:01:36;;;;;;;11.75;6.10;;;17.10;99.90;;;;;;4982074;28;20785;-78
2023/08/14 07:04:02;;;;;;;8.50;5.18;;;17.10;99.90;;;;;;5002520;28;20031;-79
2023/08/14 07:06:28;;;;;;;8.70;5.22;;;17.10;99.90;;;;;;4986237;28;20038;-80
2023/08/14 07:08:53;;;;;;;9.85;5.85;;;17.00;99.90;;;;;;4987003;28;20093;-78
2023/08/14 07:11:19;;;;;;;11.80;5.53;;;17.00;99.90;;;;;;4986191;28;20044;-79
2023/08/14 07:13:45;;;;;;;9.75;5.65;;;17.00;99.90;;;;;;5001531;28;20042;-80
2023/08/14 07:16:10;;;;;;;8.27;5.50;;;17.00;99.90;;;;;;4995038;28;20034;-79
2023/08/14 07:18:36;;;;;;;9.52;5.88;;;17.00;99.90;;;;;;4974834;28;20073;-79
2023/08/14 07:21:02;;;;;;;12.10;5.90;;;17.10;99.90;;;;;;4985734;28;20030;-79
2023/08/14 07:23:27;;;;;;;13.20;5.82;;;17.10;99.90;;;;;;4981695;28;20643;-79
2023/08/14 07:25:57;;;;;;;13.00;5.85;;;17.10;99.90;;;;;;4983441;28;20030;-79
2023/08/14 07:28:23;;;;;;;8.77;5.47;;;17.20;99.90;;;;;;4983669;28;20093;-79
2023/08/14 07:30:49;;;;;;;8.55;5.35;;;17.20;99.90;;;;;;4983222;28;20046;-78
2023/08/14 07:33:15;;;;;;;9.13;5.28;;;17.30;99.90;;;;;;4985562;28;20417;-78
2023/08/14 07:35:41;;;;;;;7.97;5.28;;;17.50;99.90;;;;;;5002174;28;20080;-79
2023/08/14 07:38:07;;;;;;;10.60;5.40;;;17.70;99.90;;;;;;4973614;28;20493;-79
2023/08/14 07:40:33;;;;;;;10.25;5.32;;;17.90;99.90;;;;;;4981885;28;20038;-79
2023/08/14 07:42:59;;;;;;;10.20;5.20;;;18.20;99.90;;;;;;4978372;28;20108;-79
2023/08/14 07:45:24;;;;;;;10.85;5.03;;;18.40;99.90;;;;;;4987562;28;20116;-79
2023/08/14 07:47:50;;;;;;;6.65;4.45;;;18.60;99.90;;;;;;4968499;28;20722;-79
2023/08/14 07:50:16;;;;;;;7.60;4.57;;;18.90;99.90;;;;;;4991847;28;20046;-78
2023/08/14 07:52:41;;;;;;;6.90;3.95;;;19.10;99.90;;;;;;4967825;28;20034;-79
2023/08/14 07:55:07;;;;;;;8.18;4.03;;;19.10;99.90;;;;;;4994506;28;20050;-79
2023/08/14 07:57:33;;;;;;;6.70;4.45;;;19.10;99.90;;;;;;4969160;28;20035;-79
2023/08/14 07:59:59;;;;;;;7.25;4.00;;;19.20;99.90;;;;;;4992566;28;20043;-78
2023/08/14 08:02:24;;;;;;;5.20;3.65;;;19.30;99.90;;;;;;5002242;28;20117;-77
2023/08/14 08:04:50;;;;;;;5.40;3.53;;;19.50;99.90;;;;;;4969957;28;20084;-78
2023/08/14 08:07:16;;;;;;;6.00;3.38;;;19.60;99.90;;;;;;4983147;28;20039;-77
2023/08/14 08:09:42;;;;;;;6.22;3.15;;;19.70;99.90;;;;;;5001008;28;20045;-77
2023/08/14 08:12:08;;;;;;;4.72;2.72;;;19.90;99.90;;;;;;4984962;28;20042;-78
2023/08/14 08:14:34;;;;;;;4.47;2.88;;;19.90;99.90;;;;;;5002042;28;20496;-78
2023/08/14 08:17:00;;;;;;;4.25;3.20;;;20.00;99.90;;;;;;5002985;28;20481;-78
2023/08/14 08:19:26;;;;;;;5.32;2.80;;;20.10;99.90;;;;;;4989661;28;20048;-78
2023/08/14 08:21:52;;;;;;;4.38;2.50;;;19.90;99.90;;;;;;4969551;28;20043;-79
2023/08/14 08:24:18;;;;;;;7.60;2.85;;;19.90;99.90;;;;;;4972722;28;20438;-79
2023/08/14 08:26:43;;;;;;;5.78;2.58;;;20.10;99.90;;;;;;4997335;28;20042;-79
2023/08/14 08:29:09;;;;;;;4.43;2.25;;;20.20;99.90;;;;;;4983344;28;20108;-78
2023/08/14 08:31:35;;;;;;;3.88;2.63;;;20.20;99.90;;;;;;4971805;28;20125;-77
2023/08/14 08:34:00;;;;;;;5.78;2.47;;;20.30;99.90;;;;;;4998179;28;20093;-78
2023/08/14 08:36:26;;;;;;;2.67;2.13;;;20.40;99.90;;;;;;4972607;28;20105;-78
2023/08/14 08:38:51;;;;;;;5.63;2.60;;;20.40;99.90;;;;;;4989202;28;20038;-77
2023/08/14 08:41:35;;;;;;;5.95;2.53;;;20.40;99.90;;;;;;4993111;28;20038;-78
2023/08/14 08:44:15;;;;;;;4.40;1.95;;;20.40;99.90;;;;;;4982335;28;20050;-78
2023/08/14 08:47:10;;;;;;;3.83;2.30;;;20.50;99.90;;;;;;4986571;28;20042;-77
2023/08/14 08:49:37;;;;;;;4.60;2.28;;;20.80;99.90;;;;;;4977333;28;20058;-77
2023/08/14 08:52:03;;;;;;;2.60;1.70;;;21.10;99.90;;;;;;5003644;28;20525;-78
2023/08/14 08:54:30;;;;;;;4.30;1.95;;;21.50;99.90;;;;;;4990688;28;20131;-77
2023/08/14 08:56:56;;;;;;;4.05;1.88;;;21.80;99.90;;;;;;4971832;28;20113;-78
2023/08/14 08:59:23;;;;;;;3.33;1.60;;;22.30;99.90;;;;;;4993177;28;20034;-77
2023/08/14 09:01:49;;;;;;;2.50;1.73;;;23.10;99.90;;;;;;4976192;28;20050;-78
2023/08/14 09:04:15;;;;;;;4.57;2.10;;;23.50;99.90;;;;;;4987103;28;20086;-77
2023/08/14 09:06:41;;;;;;;2.78;1.52;;;23.60;99.90;;;;;;4999461;28;20050;-78
2023/08/14 09:09:08;;;;;;;2.88;1.52;;;23.40;99.90;;;;;;4986620;28;20404;-77
2023/08/14 09:11:34;;;;;;;4.68;1.50;;;23.10;99.90;;;;;;4989787;28;20618;-77
2023/08/14 09:14:00;;;;;;;4.68;1.60;;;23.00;99.90;;;;;;4981882;28;20715;-77
2023/08/14 09:16:27;;;;;;;3.15;1.30;;;23.40;99.90;;;;;;4983388;28;20042;-78
2023/08/14 09:19:00;;;;;;;4.60;1.80;;;24.20;99.90;;;;;;4987547;28;20497;-78
2023/08/14 09:21:27;;;;;;;3.92;1.55;;;24.70;99.90;;;;;;4984654;28;20041;-78
2023/08/14 09:23:54;;;;;;;2.67;1.20;;;25.20;99.90;;;;;;4977879;28;20631;-78
2023/08/14 09:26:20;;;;;;;2.28;1.63;;;25.70;99.90;;;;;;4982120;28;20073;-78
2023/08/14 09:28:47;;;;;;;3.97;2.10;;;26.40;99.90;;;;;;4984650;28;20552;-79
2023/08/14 09:31:13;;;;;;;4.68;1.85;;;26.80;99.90;;;;;;4980663;28;20936;-78
2023/08/14 09:33:44;;;;;;;3.45;1.65;;;27.40;99.90;;;;;;4993485;28;20046;-79
2023/08/14 09:36:12;;;;;;;3.75;1.67;;;27.90;99.90;;;;;;4978858;28;20050;-79
2023/08/14 09:38:38;;;;;;;3.78;1.77;;;28.30;99.90;;;;;;5000329;28;20042;-79
2023/08/14 09:41:04;;;;;;;2.72;1.88;;;28.30;5.40;;;;;;4999365;28;20041;-79
2023/08/14 09:43:32;;;;;;;4.13;1.90;;;28.00;1.00;;;;;;4984626;28;20410;-78
2023/08/14 09:45:59;;;;;;;5.03;1.90;;;28.30;49.60;;;;;;4974640;28;20142;-78
2023/08/14 09:48:48;;;;;;;6.03;1.77;;;28.00;1.00;;;;;;4983935;28;20069;-79
2023/08/14 09:51:18;;;;;;;3.70;1.50;;;28.20;99.90;;;;;;4989319;28;20103;-78
2023/08/14 09:53:54;;;;;;;3.63;1.60;;;28.40;1.00;;;;;;4981442;28;20049;-79
2023/08/14 09:56:20;;;;;;;7.13;2.67;;;28.40;1.00;;;;;;4971807;28;20732;-79
2023/08/14 09:58:47;;;;;;;3.33;1.60;;;28.50;1.00;;;;;;4976471;28;20042;-79
2023/08/14 10:01:18;;;;;;;5.32;1.45;;;28.50;99.90;;;;;;4979458;28;20133;-78
2023/08/14 10:03:46;;;;;;;3.30;1.20;;;28.60;99.90;;;;;;4996507;28;20046;-79
2023/08/14 10:06:13;;;;;;;5.78;1.85;;;28.80;99.90;;;;;;4997451;28;20045;-79
2023/08/14 10:08:42;;;;;;;2.78;1.17;;;29.50;14.60;;;;;;4969619;28;20176;-80
2023/08/14 10:11:10;;;;;;;2.88;1.10;;;30.00;19.70;;;;;;4964191;28;20744;-78
2023/08/14 10:14:10;;;;;;;3.10;1.10;;;30.80;1.00;;;;;;4993987;28;20046;-79
2023/08/14 10:16:40;;;;;;;15.98;2.25;;;30.80;99.90;;;;;;4963709;28;20060;-79
2023/08/14 10:19:12;;;;;;;3.72;1.23;;;29.60;99.90;;;;;;4969530;28;20069;-79
2023/08/14 10:21:40;;;;;;;1.90;1.05;;;28.70;99.90;;;;;;4976305;28;20039;-79
2023/08/14 10:24:07;;;;;;;1.77;1.08;;;28.30;99.90;;;;;;4985392;28;20041;-79
2023/08/14 10:26:33;;;;;;;3.05;1.27;;;29.40;99.90;;;;;;4981730;28;20038;-78
2023/08/14 10:29:02;;;;;;;3.05;1.02;;;30.40;99.90;;;;;;5001043;28;20057;-81
2023/08/14 10:31:29;;;;;;;3.40;1.10;;;31.20;99.90;;;;;;4978983;28;20047;-79
2023/08/14 10:33:57;;;;;;;3.80;1.08;;;31.90;92.10;;;;;;4986552;28;20043;-78
2023/08/14 10:36:27;;;;;;;2.05;0.93;;;32.30;1.00;;;;;;4979276;28;20038;-79
2023/08/14 10:38:52;;;;;;;2.35;1.17;;;32.60;1.00;;;;;;4995026;28;20085;-77
2023/08/14 10:41:18;;;;;;;1.65;0.80;;;33.40;1.00;;;;;;4986435;28;20125;-80
2023/08/14 10:43:50;;;;;;;2.97;1.10;;;34.20;1.00;;;;;;4986884;28;20065;-78
2023/08/14 10:46:17;;;;;;;2.53;0.90;;;34.80;1.00;;;;;;4979262;28;20054;-78
2023/08/14 10:48:43;;;;;;;2.63;1.10;;;34.80;1.00;;;;;;4965335;28;20929;-79
2023/08/14 10:51:10;;;;;;;2.28;0.90;;;33.60;1.00;;;;;;4998199;28;20134;-78
2023/08/14 10:53:36;;;;;;;1.55;0.80;;;32.50;1.00;;;;;;4980178;28;20511;-78
2023/08/14 10:56:04;;;;;;;2.60;0.95;;;32.10;1.00;;;;;;4978935;28;21943;-78
2023/08/14 10:58:35;;;;;;;2.42;0.90;;;31.40;1.00;;;;;;4963167;28;20378;-78
2023/08/14 11:01:03;;;;;;;3.33;1.00;;;30.80;1.00;;;;;;4980216;28;20096;-78
2023/08/14 11:03:30;;;;;;;1.77;0.90;;;31.60;1.00;;;;;;4963785;28;20041;-78
2023/08/14 11:05:56;;;;;;;5.32;1.45;;;32.10;1.00;;;;;;4987235;28;20045;-78
2023/08/14 11:08:22;;;;;;;4.05;1.08;;;31.30;1.00;;;;;;4971168;28;20055;-78
2023/08/14 11:10:49;;;;;;;3.20;1.10;;;30.20;1.00;;;;;;4975116;28;20045;-78
2023/08/14 11:13:15;;;;;;;2.63;0.98;;;29.40;1.00;;;;;;4991280;28;20046;-78
2023/08/14 11:15:42;;;;;;;3.30;1.00;;;29.60;1.00;;;;;;4977582;28;20041;-78
2023/08/14 11:18:09;;;;;;;5.15;1.33;;;29.60;1.00;;;;;;4999409;28;20038;-79
2023/08/14 11:20:44;;;;;;;2.47;1.17;;;29.50;1.00;;;;;;4983166;28;20058;-78
2023/08/14 11:23:09;;;;;;;3.35;1.00;;;29.90;1.00;;;;;;4978880;28;20108;-78
2023/08/14 11:25:37;;;;;;;3.15;1.33;;;29.40;1.00;;;;;;4995938;28;20065;-78
2023/08/14 11:28:03;;;;;;;2.50;0.95;;;28.70;1.00;;;;;;4986676;28;20074;-78
2023/08/14 11:30:34;;;;;;;2.42;0.90;;;28.20;1.00;;;;;;4992355;28;20059;-78
2023/08/14 11:33:04;;;;;;;4.35;1.05;;;29.20;1.00;;;;;;4999066;28;20143;-78
2023/08/14 11:35:30;;;;;;;1.50;0.80;;;30.40;1.00;;;;;;4982153;28;20268;-78
2023/08/14 11:37:56;;;;;;;2.55;0.80;;;30.70;1.00;;;;;;5000635;28;20513;-78
2023/08/14 11:40:23;;;;;;;2.15;0.77;;;31.10;1.00;;;;;;4982716;28;20038;-78
2023/08/14 11:42:49;;;;;;;1.70;0.80;;;32.50;1.00;;;;;;5000968;28;20069;-79
2023/08/14 11:45:14;;;;;;;1.85;0.73;;;34.00;1.00;;;;;;4979108;28;20487;-79
2023/08/14 11:47:47;;;;;;;2.03;0.60;;;35.20;1.00;;;;;;4969320;28;20640;-78
2023/08/14 11:50:14;;;;;;;3.63;0.82;;;36.20;1.00;;;;;;5001370;28;20050;-78
2023/08/14 11:52:42;;;;;;;2.15;0.73;;;36.20;1.00;;;;;;4987036;28;20042;-77
2023/08/14 11:55:08;;;;;;;1.73;0.93;;;36.80;1.00;;;;;;4986653;28;20035;-77
2023/08/14 11:57:34;;;;;;;4.25;0.98;;;37.10;1.00;;;;;;4979680;28;20116;-79
2023/08/14 12:00:01;;;;;;;2.47;0.70;;;37.80;1.00;;;;;;5001557;28;20126;-78
2023/08/14 12:02:28;;;;;;;2.75;0.80;;;38.60;1.00;;;;;;4984072;28;20050;-79
2023/08/14 12:05:00;;;;;;;1.88;0.77;;;38.70;1.00;;;;;;4978704;28;20488;-79
2023/08/14 12:07:27;;;;;;;2.63;0.50;;;37.60;1.00;;;;;;4986439;28;20070;-78
2023/08/14 12:09:54;;;;;;;2.65;1.00;;;36.90;1.00;;;;;;4986158;28;20046;-79
2023/08/14 12:12:20;;;;;;;4.10;0.85;;;37.00;1.00;;;;;;4982695;28;20054;-79
2023/08/14 12:14:47;;;;;;;3.22;0.70;;;36.50;1.00;;;;;;4978011;28;20038;-79
2023/08/14 12:17:15;;;;;;;2.28;0.75;;;36.50;1.00;;;;;;4998758;28;20046;-79
2023/08/14 12:19:42;;;;;;;2.13;0.88;;;36.90;1.00;;;;;;4972945;28;20097;-79
2023/08/14 12:22:09;;;;;;;3.60;0.70;;;36.50;1.00;;;;;;4987515;28;20042;-79
2023/08/14 12:24:39;;;;;;;2.65;0.82;;;35.40;1.00;;;;;;4998808;28;20535;-78
2023/08/14 12:27:14;;;;;;;2.45;0.85;;;35.30;1.00;;;;;;4988493;28;20078;-79
2023/08/14 12:29:39;;;;;;;2.10;1.15;;;36.00;1.00;;;;;;5005175;28;20062;-78
2023/08/14 12:32:05;;;;;;;2.17;0.90;;;36.20;1.00;;;;;;5003903;28;20057;-79
2023/08/14 12:34:30;;;;;;;2.10;0.88;;;35.90;1.00;;;;;;4987553;28;20042;-78
2023/08/14 12:36:56;;;;;;;2.05;0.70;;;35.60;1.00;;;;;;5004957;28;20046;-79
2023/08/14 12:39:22;;;;;;;2.58;0.70;;;36.20;1.00;;;;;;5002792;28;20420;-79
2023/08/14 12:41:47;;;;;;;2.63;0.93;;;35.80;1.00;;;;;;4971133;28;20038;-79
2023/08/14 12:44:13;;;;;;;5.45;1.10;;;34.90;1.00;;;;;;4971934;28;20085;-79